Time;durP1;ratioP1;P1;durP2;ratioP2;P2;SDS_P1;SDS_P2;PMS_P1;PMS_P2;Temp;Humidity;BMP_temperature;BMP_pressure;BME280_temperature;BME280_humidity;BME280_pressure;Samples;Min_cycle;Max_cycle;Signal;HPM_P1;HPM_P2
2022/12/08 00:00:48;;;;;;;54.72;23.45;;;;;;;7.09;78.46;99710.38;3145334;28;20055;-65
2022/12/08 00:02:20;;;;;;;55.05;23.52;;;;;;;7.15;78.21;99709.34;3144873;28;20052;-64
2022/12/08 00:03:52;;;;;;;53.40;24.30;;;;;;;7.01;78.44;99696.81;3145130;28;20037;-63
2022/12/08 00:09:23;;;;;;;50.75;22.02;;;;;;;7.16;78.34;99719.66;3145131;28;20049;-64
2022/12/08 00:10:55;;;;;;;53.80;22.88;;;;;;;7.12;78.30;99717.22;3132998;28;20053;-62
2022/12/08 00:12:26;;;;;;;54.08;22.65;;;;;;;7.14;78.21;99715.44;3144502;28;20419;-64
2022/12/08 00:13:57;;;;;;;50.72;22.25;;;;;;;7.14;78.01;99721.44;3145145;28;20534;-65
2022/12/08 00:15:29;;;;;;;48.85;22.08;;;;;;;7.08;78.12;99713.88;3145222;28;20102;-65
2022/12/08 00:17:02;;;;;;;52.78;23.70;;;;;;;7.21;77.98;99728.09;3145065;28;20053;-65
2022/12/08 00:18:33;;;;;;;51.78;21.67;;;;;;;7.22;78.35;99723.78;3145315;28;20053;-65
2022/12/08 00:20:06;;;;;;;47.55;21.40;;;;;;;7.19;78.19;99727.31;3144979;28;20113;-64
2022/12/08 00:21:38;;;;;;;50.95;22.98;;;;;;;7.23;78.29;99728.06;3145192;28;20049;-64
2022/12/08 00:23:11;;;;;;;52.00;22.42;;;;;;;7.26;78.13;99733.16;3145170;28;20496;-65
2022/12/08 00:24:45;;;;;;;61.28;22.00;;;;;;;7.26;78.04;99734.00;3144887;28;20044;-65
2022/12/08 00:26:17;;;;;;;48.20;22.48;;;;;;;7.27;78.26;99740.00;3144939;28;20518;-65
2022/12/08 00:27:48;;;;;;;49.70;22.13;;;;;;;7.26;78.24;99740.91;3145014;28;20052;-63
2022/12/08 00:29:20;;;;;;;52.17;22.52;;;;;;;7.27;78.26;99742.59;3144982;28;20060;-63
2022/12/08 00:30:51;;;;;;;48.40;22.20;;;;;;;7.26;78.12;99743.50;3144730;28;20086;-64
2022/12/08 00:32:23;;;;;;;50.10;20.75;;;;;;;7.23;78.00;99743.59;3144982;28;20124;-64
2022/12/08 00:33:55;;;;;;;50.38;22.42;;;;;;;7.23;78.26;99741.03;3144989;28;20058;-64
2022/12/08 00:35:27;;;;;;;46.20;21.45;;;;;;;7.17;78.05;99729.13;3145015;28;20067;-65
2022/12/08 00:36:59;;;;;;;53.03;21.58;;;;;;;7.22;78.10;99740.19;3144864;28;20044;-64
2022/12/08 00:38:31;;;;;;;50.63;21.92;;;;;;;7.21;78.25;99730.69;3144576;28;20048;-64
2022/12/08 00:40:03;;;;;;;50.85;22.60;;;;;;;7.23;78.19;99738.44;3144936;28;20044;-64
2022/12/08 00:43:25;;;;;;;42.40;20.80;;;;;;;7.22;78.11;99735.00;3132805;28;20124;-64
2022/12/08 00:44:57;;;;;;;54.35;22.80;;;;;;;7.23;78.15;99731.50;3144851;28;20052;-64
2022/12/08 00:46:29;;;;;;;54.30;22.45;;;;;;;7.23;78.18;99730.66;3144867;28;20493;-64
2022/12/08 00:48:01;;;;;;;50.90;22.45;;;;;;;7.27;78.23;99734.84;3145069;28;20057;-64
2022/12/08 00:49:33;;;;;;;49.38;21.88;;;;;;;7.25;78.17;99726.28;3144731;28;20736;-65
2022/12/08 00:51:05;;;;;;;53.85;21.88;;;;;;;7.32;78.37;99737.28;3144713;28;20070;-65
2022/12/08 00:52:37;;;;;;;52.85;23.08;;;;;;;7.33;77.93;99738.97;3144861;28;20501;-65
2022/12/08 00:54:11;;;;;;;60.22;21.08;;;;;;;6.94;78.05;99665.13;3144555;28;20040;-64
2022/12/08 00:55:43;;;;;;;48.10;21.70;;;;;;;7.23;78.22;99704.75;3144855;28;20045;-64
2022/12/08 00:57:15;;;;;;;50.67;22.42;;;;;;;7.35;78.00;99721.63;3134542;28;20316;-64
2022/12/08 00:58:47;;;;;;;51.93;22.20;;;;;;;7.29;78.25;99709.72;3103428;28;1181181;-64
2022/12/08 01:00:20;;;;;;;50.78;21.52;;;;;;;7.36;78.01;99718.13;3145381;28;20492;-64
2022/12/08 01:01:51;;;;;;;54.28;22.08;;;;;;;7.36;78.07;99728.50;3138116;28;20390;-64
2022/12/08 01:03:24;;;;;;;48.47;21.75;;;;;;;7.35;77.87;99717.31;3145059;28;20387;-64
2022/12/08 01:04:55;;;;;;;44.92;19.85;;;;;;;7.28;78.11;99715.81;3145131;28;20071;-65
2022/12/08 01:06:27;;;;;;;43.60;21.30;;;;;;;7.37;77.93;99731.06;3145228;28;20555;-64
2022/12/08 01:07:59;;;;;;;48.45;21.23;;;;;;;7.32;78.13;99713.97;3144996;28;20551;-64
2022/12/08 01:09:32;;;;;;;45.35;19.98;;;;;;;7.38;78.10;99726.72;3145191;28;20444;-64
2022/12/08 01:11:04;;;;;;;48.78;22.10;;;;;;;6.92;77.68;99654.00;3145346;28;20080;-64
2022/12/08 01:12:36;;;;;;;48.00;20.77;;;;;;;7.18;77.90;99702.31;3145009;28;20048;-64
2022/12/08 01:14:08;;;;;;;46.47;20.95;;;;;;;7.38;77.83;99727.56;3145212;28;20052;-64
2022/12/08 01:15:40;;;;;;;46.20;21.10;;;;;;;7.33;77.79;99711.31;3145075;28;20162;-64
2022/12/08 01:17:12;;;;;;;51.30;22.42;;;;;;;7.41;77.80;99727.47;3145045;28;20048;-65
2022/12/08 01:18:43;;;;;;;46.75;20.75;;;;;;;7.43;77.99;99732.59;3144292;28;20049;-64
2022/12/08 01:20:14;;;;;;;45.40;20.38;;;;;;;7.42;77.75;99731.72;3145105;28;20040;-65
2022/12/08 01:21:47;;;;;;;48.65;21.23;;;;;;;6.98;77.99;99666.72;3145026;28;20048;-64
2022/12/08 01:23:19;;;;;;;54.97;21.15;;;;;;;7.43;77.81;99733.44;3145032;28;20106;-64
2022/12/08 01:24:52;;;;;;;48.45;21.05;;;;;;;7.39;77.71;99726.66;3144737;28;20568;-64
2022/12/08 01:26:24;;;;;;;49.38;20.60;;;;;;;7.44;77.72;99731.69;3144861;28;20440;-65
2022/12/08 01:27:56;;;;;;;47.00;21.52;;;;;;;6.96;77.79;99658.16;3145453;28;20075;-64
2022/12/08 01:29:28;;;;;;;45.25;20.20;;;;;;;7.44;77.70;99734.28;3145008;28;20048;-64
2022/12/08 01:31:00;;;;;;;44.25;20.10;;;;;;;7.45;77.71;99741.16;3144848;28;20075;-64
2022/12/08 01:32:32;;;;;;;47.88;20.27;;;;;;;7.44;77.70;99742.06;3144900;28;20055;-64
2022/12/08 01:34:04;;;;;;;47.17;19.25;;;;;;;7.18;77.62;99698.88;3144919;28;20113;-63
2022/12/08 01:35:35;;;;;;;44.33;19.60;;;;;;;7.42;77.50;99747.28;3141407;28;20053;-63
2022/12/08 01:37:07;;;;;;;48.75;20.15;;;;;;;7.42;77.58;99744.69;3144777;28;20044;-65
2022/12/08 01:38:39;;;;;;;45.15;19.48;;;;;;;7.39;77.88;99738.75;3144766;28;20113;-64
2022/12/08 01:40:13;;;;;;;46.33;18.52;;;;;;;7.43;77.67;99741.22;3145095;28;20063;-64
2022/12/08 01:41:46;;;;;;;;;;;;;;;7.14;77.63;99708.50;3145079;28;20060;-63
2022/12/08 01:43:20;;;;;;;44.22;18.85;;;;;;;7.02;77.87;99693.38;3144638;28;20310;-63
2022/12/08 01:44:56;;;;;;;44.60;18.63;;;;;;;7.37;78.07;99740.59;3132351;28;20053;-64
2022/12/08 01:46:29;;;;;;;41.10;18.17;;;;;;;7.38;77.65;99737.94;3144152;28;20186;-64
2022/12/08 01:48:06;;;;;;;40.03;18.25;;;;;;;7.40;77.59;99740.47;3144403;28;20640;-64
2022/12/08 01:49:38;;;;;;;43.67;18.77;;;;;;;7.40;77.73;99740.47;3144571;28;20056;-63
2022/12/08 01:51:10;;;;;;;45.00;20.08;;;;;;;7.40;77.61;99738.72;3142716;28;20062;-64
2022/12/08 01:52:46;;;;;;;49.08;19.55;;;;;;;7.42;77.49;99741.25;3144458;28;20101;-64
2022/12/08 01:54:18;;;;;;;44.17;20.40;;;;;;;7.33;77.84;99732.03;3144577;28;20072;-64
2022/12/08 01:55:56;;;;;;;53.08;19.75;;;;;;;7.28;77.75;99721.00;3144614;28;20048;-64
2022/12/08 01:57:31;;;;;;;41.85;18.65;;;;;;;7.29;77.77;99730.47;3144414;28;20399;-64
2022/12/08 01:59:03;;;;;;;38.75;18.48;;;;;;;7.28;77.51;99731.38;3144619;28;20052;-64
2022/12/08 02:00:35;;;;;;;40.38;18.50;;;;;;;7.27;77.96;99737.41;3144366;28;20488;-64
2022/12/08 02:02:09;;;;;;;45.97;19.17;;;;;;;7.18;77.80;99723.03;3144571;28;20044;-64
2022/12/08 02:03:43;;;;;;;;;;;;;;;7.18;77.79;99735.13;3145241;28;20052;-64
2022/12/08 02:05:16;;;;;;;43.95;18.27;;;;;;;7.12;78.07;99730.16;3144530;28;20074;-64
2022/12/08 02:06:49;;;;;;;42.10;17.88;;;;;;;7.12;78.17;99720.63;3144718;28;20053;-64
2022/12/08 02:08:22;;;;;;;44.33;18.83;;;;;;;7.04;78.02;99707.97;3144585;28;20048;-64
2022/12/08 02:09:55;;;;;;;41.10;18.33;;;;;;;6.56;77.91;99628.34;3144442;28;20487;-64
2022/12/08 02:11:29;;;;;;;51.00;20.42;;;;;;;7.10;78.04;99717.28;3144336;28;20105;-63
2022/12/08 02:13:02;;;;;;;43.40;18.92;;;;;;;7.00;77.88;99698.56;3144222;28;20110;-63
2022/12/08 02:14:34;;;;;;;42.50;18.67;;;;;;;7.16;78.20;99722.25;3144239;28;20436;-64
2022/12/08 02:16:13;;;;;;;39.15;19.13;;;;;;;7.18;78.05;99717.00;3144617;28;20063;-63
2022/12/08 02:17:58;;;;;;;43.63;18.10;;;;;;;7.12;78.15;99715.47;3132161;28;20599;-63
2022/12/08 02:20:02;;;;;;;42.33;19.15;;;;;;;7.18;78.21;99725.63;3132167;28;20057;-64
2022/12/08 02:21:40;;;;;;;48.13;19.53;;;;;;;7.16;78.38;99730.03;3134815;28;20068;-63
2022/12/08 02:23:24;;;;;;;45.38;18.50;;;;;;;7.17;78.09;99723.94;3144496;28;20048;-63
2022/12/08 02:25:02;;;;;;;41.92;17.40;;;;;;;7.13;78.23;99722.34;3144571;28;20067;-64
2022/12/08 02:27:17;;;;;;;42.38;18.35;;;;;;;7.15;78.27;99728.31;3144339;28;20052;-64
2022/12/08 02:29:04;;;;;;;42.85;19.73;;;;;;;7.07;78.18;99718.22;3133748;28;20099;-63
2022/12/08 02:30:47;;;;;;;42.53;19.05;;;;;;;7.13;78.35;99726.66;3144090;28;20052;-64
2022/12/08 02:32:54;;;;;;;45.00;18.35;;;;;;;7.13;78.57;99722.34;3144574;28;20048;-63
2022/12/08 02:34:30;;;;;;;44.42;18.85;;;;;;;7.14;78.42;99736.13;3144674;28;20513;-64
2022/12/08 02:36:09;;;;;;;47.88;20.27;;;;;;;7.10;78.12;99717.28;3144276;28;20450;-64
2022/12/08 02:37:49;;;;;;;44.88;20.00;;;;;;;7.09;78.38;99728.50;3144442;28;20052;-64
2022/12/08 02:39:28;;;;;;;46.35;19.17;;;;;;;7.10;78.64;99726.75;3144159;28;20056;-63
2022/12/08 02:41:06;;;;;;;41.80;18.38;;;;;;;7.06;78.43;99721.69;3144427;28;20044;-63
2022/12/08 02:42:44;;;;;;;43.58;18.80;;;;;;;7.16;78.25;99739.50;3144257;28;20049;-64
2022/12/08 02:44:24;;;;;;;42.45;19.10;;;;;;;7.17;78.52;99741.22;3142052;28;20048;-64
2022/12/08 02:46:01;;;;;;;40.78;19.00;;;;;;;7.06;78.19;99729.44;3132625;28;20053;-64
2022/12/08 02:47:34;;;;;;;43.60;19.02;;;;;;;7.16;78.29;99740.38;3142124;28;20056;-64
2022/12/08 02:49:07;;;;;;;42.75;18.67;;;;;;;7.15;78.55;99736.06;3144307;28;20113;-64
2022/12/08 02:50:39;;;;;;;40.42;18.58;;;;;;;7.15;78.40;99736.06;3144322;28;20044;-63
2022/12/08 02:52:40;;;;;;;39.67;18.50;;;;;;;7.17;78.50;99739.47;3144089;28;20375;-65
2022/12/08 02:54:13;;;;;;;36.75;17.38;;;;;;;7.11;78.60;99733.66;3140927;28;20094;-62
2022/12/08 02:55:56;;;;;;;40.83;17.25;;;;;;;7.12;78.42;99738.75;3143995;28;20127;-63
2022/12/08 02:57:42;;;;;;;43.10;18.02;;;;;;;6.98;78.51;99722.81;3144290;28;20048;-64
2022/12/08 02:59:25;;;;;;;43.45;18.92;;;;;;;7.08;78.40;99732.00;3144169;28;20060;-64
2022/12/08 03:01:12;;;;;;;36.25;16.73;;;;;;;7.15;78.46;99750.78;3144177;28;20090;-63
2022/12/08 03:02:56;;;;;;;43.67;17.90;;;;;;;7.06;78.33;99739.81;3141383;28;20056;-64
2022/12/08 03:04:39;;;;;;;41.20;17.38;;;;;;;7.09;78.48;99748.38;3143993;28;20049;-64
2022/12/08 03:06:25;;;;;;;43.85;17.83;;;;;;;7.05;78.37;99738.13;3144216;28;20084;-64
2022/12/08 03:08:03;;;;;;;46.17;19.10;;;;;;;7.06;78.51;99741.56;3144063;28;20060;-63
2022/12/08 03:09:39;;;;;;;42.10;18.30;;;;;;;7.05;78.66;99740.72;3144231;28;20048;-64
2022/12/08 03:11:19;;;;;;;43.63;16.85;;;;;;;7.01;78.88;99735.66;3143999;28;20791;-64
2022/12/08 03:12:56;;;;;;;36.17;17.20;;;;;;;7.06;78.86;99744.97;3143995;28;20138;-64
2022/12/08 03:14:30;;;;;;;46.28;18.17;;;;;;;6.88;78.73;99706.72;3144031;28;20067;-63
2022/12/08 03:16:06;;;;;;;45.42;18.25;;;;;;;7.08;78.77;99734.59;3144417;28;20049;-64
2022/12/08 03:17:43;;;;;;;42.53;18.35;;;;;;;7.08;78.89;99729.41;3144086;28;20052;-63
2022/12/08 03:19:18;;;;;;;41.45;16.92;;;;;;;7.07;78.63;99732.91;3143888;28;20109;-63
2022/12/08 03:20:51;;;;;;;36.33;17.38;;;;;;;6.99;78.82;99725.38;3143866;28;20059;-64
2022/12/08 03:22:27;;;;;;;39.55;17.80;;;;;;;7.00;78.79;99724.47;3144187;28;20053;-63
2022/12/08 03:24:02;;;;;;;38.85;16.70;;;;;;;7.01;78.53;99721.00;3143961;28;20108;-63
2022/12/08 03:25:40;;;;;;;41.85;17.58;;;;;;;7.01;78.55;99723.59;3143967;28;20052;-64
2022/12/08 03:27:14;;;;;;;42.45;19.02;;;;;;;6.99;78.70;99733.13;3140693;28;20048;-63
2022/12/08 03:28:46;;;;;;;;;;;;;;;6.91;78.72;99723.91;3144464;28;20048;-64
2022/12/08 03:30:18;;;;;;;43.67;16.50;;;;;;;6.83;78.70;99712.06;3141930;28;20467;-63
2022/12/08 03:31:54;;;;;;;40.38;17.60;;;;;;;6.89;78.56;99723.97;3131607;28;20067;-65
2022/12/08 03:33:30;;;;;;;39.95;17.10;;;;;;;6.85;78.80;99722.38;3143942;28;20052;-65
2022/12/08 03:35:07;;;;;;;35.33;16.27;;;;;;;6.82;78.66;99725.88;3131831;28;20064;-64
2022/12/08 03:36:39;;;;;;;40.05;17.55;;;;;;;6.90;78.79;99736.00;3143248;28;20045;-64
2022/12/08 03:38:14;;;;;;;39.47;16.70;;;;;;;6.93;79.11;99740.25;3144082;28;20040;-64
2022/12/08 03:39:46;;;;;;;40.42;18.27;;;;;;;6.87;78.83;99732.69;3143908;28;20489;-64
2022/12/08 03:41:17;;;;;;;36.13;17.30;;;;;;;6.93;79.09;99741.09;3143903;28;20048;-65
2022/12/08 03:42:49;;;;;;;44.97;17.23;;;;;;;6.90;78.81;99738.59;3145943;28;20053;-65
2022/12/08 03:44:21;;;;;;;38.42;16.10;;;;;;;6.88;79.09;99737.81;3146230;28;20121;-64
2022/12/08 03:45:53;;;;;;;44.28;18.35;;;;;;;6.94;78.97;99747.13;3145982;28;20056;-63
2022/12/08 03:47:25;;;;;;;38.72;17.90;;;;;;;6.90;79.22;99737.75;3146398;28;20053;-64
2022/12/08 03:48:56;;;;;;;38.45;18.08;;;;;;;6.73;79.18;99709.81;3146089;28;20052;-64
2022/12/08 03:50:28;;;;;;;37.05;16.58;;;;;;;6.94;79.10;99747.97;3146135;28;20453;-64
2022/12/08 03:51:59;;;;;;;37.63;16.35;;;;;;;6.96;79.17;99741.00;3146192;28;20049;-64
2022/12/08 03:53:32;;;;;;;42.38;17.13;;;;;;;6.90;79.21;99730.00;3146205;28;20044;-64
2022/12/08 03:55:05;;;;;;;36.17;15.95;;;;;;;6.83;79.31;99727.59;3145916;28;20506;-65
2022/12/08 03:56:38;;;;;;;37.70;16.33;;;;;;;6.94;79.01;99741.94;3146274;28;20078;-65
2022/12/08 03:58:10;;;;;;;38.35;16.20;;;;;;;6.95;79.11;99752.25;3146217;28;20093;-64
2022/12/08 03:59:42;;;;;;;35.10;17.02;;;;;;;6.96;79.41;99750.50;3145865;28;20091;-64
2022/12/08 04:01:13;;;;;;;38.25;16.90;;;;;;;6.90;79.55;99732.59;3145812;28;20045;-65
2022/12/08 04:02:45;;;;;;;38.67;16.95;;;;;;;6.91;79.41;99731.69;3146054;28;20066;-64
2022/12/08 04:04:17;;;;;;;36.60;15.65;;;;;;;6.97;79.21;99740.09;3146057;28;20057;-64
2022/12/08 04:05:48;;;;;;;38.80;16.35;;;;;;;6.95;79.35;99735.84;3145952;28;20167;-65
2022/12/08 04:07:20;;;;;;;37.78;17.33;;;;;;;6.94;79.32;99734.19;3145669;28;20041;-65
2022/12/08 04:08:52;;;;;;;40.05;17.25;;;;;;;6.90;79.28;99730.00;3145774;28;20056;-65
2022/12/08 04:10:24;;;;;;;36.38;17.00;;;;;;;6.94;79.50;99731.59;3146167;28;20578;-65
2022/12/08 04:11:56;;;;;;;39.13;15.82;;;;;;;6.88;79.44;99729.19;3145780;28;20135;-64
2022/12/08 04:13:27;;;;;;;35.20;15.30;;;;;;;6.91;79.52;99737.69;3145757;28;20052;-64
2022/12/08 04:14:59;;;;;;;40.30;16.20;;;;;;;6.87;79.22;99730.09;3145626;28;20048;-64
2022/12/08 04:16:31;;;;;;;37.85;15.85;;;;;;;6.60;79.38;99692.06;3142330;28;20053;-64
2022/12/08 04:18:03;;;;;;;33.97;15.85;;;;;;;6.90;79.53;99741.19;3133378;28;20048;-64
2022/12/08 04:19:35;;;;;;;33.30;15.35;;;;;;;6.29;79.22;99644.75;3133298;28;20045;-66
2022/12/08 04:21:07;;;;;;;33.83;15.15;;;;;;;6.87;79.21;99746.47;3133129;28;20053;-65
2022/12/08 04:22:39;;;;;;;37.35;16.05;;;;;;;6.91;79.34;99742.03;3140587;28;20045;-64
2022/12/08 04:24:12;;;;;;;42.17;16.75;;;;;;;6.91;79.15;99752.41;3146028;28;20049;-65
2022/12/08 04:25:44;;;;;;;34.97;16.38;;;;;;;6.90;79.30;99750.72;3145816;28;20510;-65
2022/12/08 04:27:16;;;;;;;33.45;15.45;;;;;;;6.89;79.44;99749.00;3145705;28;20044;-65
2022/12/08 04:28:48;;;;;;;35.60;15.45;;;;;;;6.74;79.33;99727.84;3145707;28;20097;-66
2022/12/08 04:30:20;;;;;;;39.58;16.02;;;;;;;6.87;79.27;99755.97;3145422;28;20048;-66
2022/12/08 04:31:52;;;;;;;36.10;16.13;;;;;;;6.86;79.48;99747.34;3145568;28;20052;-66
2022/12/08 04:33:24;;;;;;;38.47;16.90;;;;;;;6.86;79.36;99742.16;3142758;28;20101;-65
2022/12/08 04:34:55;;;;;;;34.58;16.58;;;;;;;6.86;79.56;99746.50;3145568;28;20056;-65
2022/12/08 04:36:27;;;;;;;37.97;15.77;;;;;;;6.87;79.34;99755.97;3145632;28;20040;-65
2022/12/08 04:37:59;;;;;;;38.25;16.80;;;;;;;6.77;79.27;99737.28;3145624;28;20052;-65
2022/12/08 04:39:33;;;;;;;39.35;16.88;;;;;;;6.86;79.61;99744.75;3145427;28;20052;-65
2022/12/08 04:41:05;;;;;;;38.42;16.98;;;;;;;6.85;79.38;99753.44;3145471;28;20503;-65
2022/12/08 04:42:36;;;;;;;36.33;16.25;;;;;;;6.84;79.65;99756.91;3145592;28;20060;-64
2022/12/08 04:44:08;;;;;;;39.25;16.85;;;;;;;6.82;79.53;99756.94;3145721;28;20048;-65
2022/12/08 04:45:41;;;;;;;35.72;16.48;;;;;;;6.80;79.42;99748.41;3145560;28;20044;-63
2022/12/08 04:47:13;;;;;;;40.03;17.10;;;;;;;6.79;79.72;99745.84;3145629;28;20049;-64
2022/12/08 04:48:45;;;;;;;33.60;16.45;;;;;;;6.62;79.42;99712.72;3145594;28;20048;-64
2022/12/08 04:50:17;;;;;;;40.90;16.00;;;;;;;6.79;79.36;99744.09;3145362;28;20614;-65
2022/12/08 04:51:49;;;;;;;33.97;16.20;;;;;;;6.72;79.27;99734.84;3145780;28;20434;-65
2022/12/08 04:53:21;;;;;;;37.30;16.38;;;;;;;6.77;79.47;99745.03;3143935;28;20056;-65
2022/12/08 04:54:54;;;;;;;37.55;17.10;;;;;;;6.76;79.14;99740.75;3145368;28;20052;-65
2022/12/08 04:56:26;;;;;;;41.83;17.02;;;;;;;6.28;79.36;99669.75;3145550;28;20169;-65
2022/12/08 04:57:58;;;;;;;43.42;17.27;;;;;;;6.72;79.41;99746.94;3145238;28;20082;-64
2022/12/08 04:59:30;;;;;;;38.22;15.65;;;;;;;6.73;79.41;99744.28;3144933;28;20061;-64
2022/12/08 05:01:02;;;;;;;39.88;15.70;;;;;;;6.69;79.54;99742.69;3145327;28;20072;-64
2022/12/08 05:02:34;;;;;;;38.83;17.85;;;;;;;6.67;79.72;99736.72;3145307;28;20492;-64
2022/12/08 05:04:06;;;;;;;42.97;18.27;;;;;;;6.76;79.54;99748.53;3145393;28;20052;-66
2022/12/08 05:05:38;;;;;;;37.28;16.60;;;;;;;6.70;79.72;99744.38;3145311;28;20102;-64
2022/12/08 05:07:10;;;;;;;37.00;15.73;;;;;;;6.77;79.73;99760.56;3145102;28;20052;-64
2022/12/08 05:08:42;;;;;;;34.60;16.02;;;;;;;6.72;79.60;99746.94;3145257;28;20052;-64
2022/12/08 05:10:16;;;;;;;41.28;17.95;;;;;;;6.73;79.90;99753.81;3145293;28;20459;-64
2022/12/08 05:11:47;;;;;;;;;;;;;;;6.73;79.85;99774.50;3145460;28;20196;-64
2022/12/08 05:13:19;;;;;;;34.97;16.27;;;;;;;6.71;79.97;99759.00;3144932;28;19924;-65
2022/12/08 05:14:51;;;;;;;38.60;15.93;;;;;;;6.69;79.95;99754.81;3145074;28;20049;-64
2022/12/08 05:16:23;;;;;;;42.20;18.27;;;;;;;6.67;80.06;99759.16;3144963;28;20052;-64
2022/12/08 05:17:55;;;;;;;47.55;19.27;;;;;;;6.74;79.92;99764.09;3145008;28;20136;-64
2022/12/08 05:19:27;;;;;;;48.95;17.98;;;;;;;6.75;79.84;99764.97;3141711;28;20078;-64
2022/12/08 05:20:59;;;;;;;44.35;18.40;;;;;;;6.74;79.90;99771.00;3145248;28;20043;-65
2022/12/08 05:22:31;;;;;;;41.67;16.95;;;;;;;6.45;80.11;99725.31;3145036;28;20066;-64
2022/12/08 05:24:03;;;;;;;41.72;17.48;;;;;;;6.74;79.80;99776.19;3145035;28;20052;-65
2022/12/08 05:25:36;;;;;;;39.80;16.77;;;;;;;6.74;79.74;99781.38;3145099;28;20204;-64
2022/12/08 05:27:10;;;;;;;47.55;18.00;;;;;;;6.72;79.64;99785.75;3144996;28;20044;-64
2022/12/08 05:28:42;;;;;;;36.53;16.75;;;;;;;6.71;79.84;99784.88;3145009;28;20055;-64
2022/12/08 05:30:14;;;;;;;50.70;18.73;;;;;;;6.66;79.87;99771.25;3144802;28;20098;-64
2022/12/08 05:31:46;;;;;;;46.85;17.98;;;;;;;6.72;79.78;99778.84;3144817;28;20056;-65
2022/12/08 05:33:17;;;;;;;42.72;17.25;;;;;;;6.75;79.75;99780.50;3145072;28;20063;-64
2022/12/08 05:34:50;;;;;;;42.30;16.92;;;;;;;6.71;79.98;99776.28;3144903;28;20053;-64
2022/12/08 05:36:22;;;;;;;36.63;17.13;;;;;;;6.77;79.86;99783.84;3143675;28;20135;-64
2022/12/08 05:37:53;;;;;;;39.67;17.00;;;;;;;6.78;79.92;99788.16;3145158;28;20048;-65
2022/12/08 05:39:26;;;;;;;47.28;17.05;;;;;;;6.76;79.82;99783.03;3144834;28;20049;-64
2022/12/08 05:40:59;;;;;;;44.70;19.02;;;;;;;6.80;79.92;99795.00;3144723;28;20048;-65
2022/12/08 05:42:31;;;;;;;43.97;17.65;;;;;;;6.78;79.78;99798.53;3145000;28;20041;-64
2022/12/08 05:44:02;;;;;;;43.97;16.90;;;;;;;6.77;79.85;99796.81;3144854;28;20165;-64
2022/12/08 05:45:34;;;;;;;44.83;17.30;;;;;;;6.75;79.86;99794.28;3144451;28;20056;-64
2022/12/08 05:47:06;;;;;;;47.35;16.48;;;;;;;6.77;79.80;99794.22;3144780;28;20528;-65
2022/12/08 05:48:39;;;;;;;45.67;18.55;;;;;;;6.76;79.89;99793.38;3144690;28;20053;-64
2022/12/08 05:50:11;;;;;;;36.85;16.48;;;;;;;6.71;80.00;99794.41;3145074;28;20053;-64
2022/12/08 05:51:43;;;;;;;45.40;19.63;;;;;;;6.79;79.91;99807.97;3145054;28;20053;-64
2022/12/08 05:53:15;;;;;;;48.85;19.67;;;;;;;6.79;80.02;99798.47;3144775;28;20125;-64
2022/12/08 05:54:47;;;;;;;64.50;19.83;;;;;;;6.82;79.91;99794.94;3144614;28;20513;-63
2022/12/08 05:56:20;;;;;;;53.63;19.58;;;;;;;6.45;80.01;99744.28;3144919;28;20049;-64
2022/12/08 05:57:52;;;;;;;49.45;19.25;;;;;;;6.82;79.89;99807.88;3144708;28;20078;-64
2022/12/08 05:59:24;;;;;;;43.63;19.42;;;;;;;6.82;80.05;99810.47;3144272;28;20127;-64
2022/12/08 06:00:56;;;;;;;48.55;19.52;;;;;;;6.48;79.92;99749.38;3144791;28;20052;-65
2022/12/08 06:02:28;;;;;;;49.10;19.35;;;;;;;6.83;79.91;99806.97;3144380;28;20189;-63
2022/12/08 06:04:03;;;;;;;56.77;22.60;;;;;;;6.83;80.05;99802.66;3143969;28;20056;-63
2022/12/08 06:05:35;;;;;;;51.03;19.85;;;;;;;6.74;80.15;99792.56;3143132;28;20418;-63
2022/12/08 06:07:08;;;;;;;48.75;21.10;;;;;;;6.85;80.40;99812.97;3144520;28;20517;-63
2022/12/08 06:08:40;;;;;;;47.40;20.00;;;;;;;6.78;80.31;99798.53;3144253;28;20044;-65
2022/12/08 06:10:12;;;;;;;53.00;21.70;;;;;;;6.86;80.38;99812.06;3144680;28;20044;-63
2022/12/08 06:11:46;;;;;;;52.17;21.08;;;;;;;6.87;80.53;99813.78;3144495;28;20189;-64
2022/12/08 06:13:17;;;;;;;;;;;;;;;6.80;80.36;99815.69;3144844;28;20131;-64
2022/12/08 06:14:49;;;;;;;59.35;19.83;;;;;;;5.98;80.61;99676.66;3144354;28;19921;-65
2022/12/08 06:16:21;;;;;;;49.05;20.60;;;;;;;6.80;80.58;99805.34;3144557;28;20074;-65
2022/12/08 06:17:53;;;;;;;51.92;20.88;;;;;;;6.89;80.77;99808.53;3144242;28;20060;-64
2022/12/08 06:19:25;;;;;;;51.88;20.25;;;;;;;6.90;80.73;99811.09;3144573;28;20469;-64
2022/12/08 06:21:02;;;;;;;53.17;18.13;;;;;;;6.94;80.74;99817.03;3132329;28;20045;-64
2022/12/08 06:22:34;;;;;;;51.90;18.95;;;;;;;6.95;80.87;99809.22;3142667;28;20511;-65
2022/12/08 06:24:06;;;;;;;56.60;20.33;;;;;;;6.97;80.78;99807.41;3144414;28;20156;-64
2022/12/08 06:25:38;;;;;;;48.72;19.35;;;;;;;6.99;80.83;99812.56;3142223;28;20062;-65
2022/12/08 06:27:11;;;;;;;51.85;18.70;;;;;;;6.53;80.35;99737.13;3142817;28;20044;-65
2022/12/08 06:28:44;;;;;;;47.80;18.92;;;;;;;7.00;80.58;99817.66;3143937;28;20048;-64
2022/12/08 06:30:17;;;;;;;44.57;18.47;;;;;;;7.01;80.50;99813.34;3144137;28;20139;-65
2022/12/08 06:31:48;;;;;;;47.85;18.65;;;;;;;6.98;80.54;99814.31;3139175;28;20315;-65
2022/12/08 06:33:20;;;;;;;50.85;19.20;;;;;;;6.96;80.57;99803.13;3142382;28;20106;-65
2022/12/08 06:34:52;;;;;;;51.72;19.05;;;;;;;7.04;80.75;99816.69;3140321;28;20052;-64
2022/12/08 06:36:27;;;;;;;43.92;19.42;;;;;;;7.05;80.69;99812.38;3134423;28;20152;-64
2022/12/08 06:37:59;;;;;;;47.38;19.70;;;;;;;7.05;80.80;99818.38;3129267;28;20083;-63
2022/12/08 06:39:31;;;;;;;50.65;20.50;;;;;;;7.07;80.73;99819.19;3122754;28;20049;-64
2022/12/08 06:41:04;;;;;;;52.15;19.90;;;;;;;7.09;80.67;99816.53;3133279;28;20066;-65
2022/12/08 06:42:43;;;;;;;49.33;19.35;;;;;;;6.99;80.81;99805.63;3135561;28;20056;-64
2022/12/08 06:44:15;;;;;;;50.65;19.23;;;;;;;7.11;80.58;99825.13;3134819;28;20056;-63
2022/12/08 06:45:46;;;;;;;49.60;19.35;;;;;;;7.13;80.73;99825.06;3134685;28;20101;-65
2022/12/08 06:47:21;;;;;;;44.53;20.08;;;;;;;7.15;80.81;99833.66;3134040;28;20051;-65
2022/12/08 06:48:53;;;;;;;52.78;21.13;;;;;;;7.15;80.49;99820.69;3133275;28;20814;-64
2022/12/08 06:50:25;;;;;;;45.42;20.17;;;;;;;7.11;80.86;99813.94;3124880;28;20535;-65
2022/12/08 06:51:57;;;;;;;53.80;20.55;;;;;;;7.18;80.61;99828.38;3134673;28;20505;-63
2022/12/08 06:53:29;;;;;;;48.00;20.15;;;;;;;7.19;80.66;99833.50;3135492;28;20067;-63
2022/12/08 06:55:01;;;;;;;55.92;23.70;;;;;;;7.21;80.76;99823.09;3135677;28;20568;-65
2022/12/08 06:56:33;;;;;;;50.70;22.58;;;;;;;7.22;80.52;99817.88;3135538;28;20429;-63
2022/12/08 06:58:06;;;;;;;50.53;19.60;;;;;;;7.10;80.44;99799.25;3134714;28;20532;-62
2022/12/08 06:59:39;;;;;;;106.90;47.53;;;;;;;7.21;80.46;99823.94;3124298;28;20063;-62
2022/12/08 07:01:13;;;;;;;88.93;39.40;;;;;;;7.29;80.66;99828.88;3121696;28;20140;-63
2022/12/08 07:02:45;;;;;;;83.32;38.88;;;;;;;7.30;80.66;99835.75;3132864;28;20588;-63
2022/12/08 07:04:16;;;;;;;79.15;37.38;;;;;;;7.34;80.65;99839.97;3135236;28;20240;-63
2022/12/08 07:05:49;;;;;;;50.67;23.95;;;;;;;7.37;80.73;99839.03;3131998;28;20556;-66
2022/12/08 07:07:21;;;;;;;55.53;22.37;;;;;;;7.33;80.49;99833.06;3134298;28;20041;-62
2022/12/08 07:08:53;;;;;;;47.85;20.30;;;;;;;7.38;80.68;99843.31;3128781;28;20311;-64
2022/12/08 07:10:25;;;;;;;52.45;20.08;;;;;;;7.39;80.61;99835.47;3121843;28;20796;-64
2022/12/08 07:11:57;;;;;;;48.53;20.15;;;;;;;7.41;80.42;99840.63;3130956;28;20052;-63
2022/12/08 07:13:30;;;;;;;56.17;20.25;;;;;;;7.29;80.16;99823.72;3134868;28;20086;-63
2022/12/08 07:15:02;;;;;;;57.20;21.15;;;;;;;7.42;80.39;99847.47;3133019;28;20577;-63
2022/12/08 07:16:34;;;;;;;49.30;21.67;;;;;;;7.27;80.42;99817.72;3133421;28;20308;-63
2022/12/08 07:18:06;;;;;;;51.63;21.25;;;;;;;7.05;80.29;99774.38;3137471;28;20049;-66
2022/12/08 07:19:38;;;;;;;48.97;20.17;;;;;;;7.45;80.15;99844.78;3129175;28;20056;-68
2022/12/08 07:21:13;;;;;;;51.10;21.45;;;;;;;7.46;80.10;99843.91;3136293;28;20857;-65
2022/12/08 07:22:49;;;;;;;58.20;21.73;;;;;;;7.47;80.20;99856.81;3137686;28;20360;-68